< < Back
Terminal Aerodrome Forecast


Current Version              Previous Versions:   1  2  3  4  5  6  7  8  9  

Terminal Aerodrome Forecast

102
FTUS42 KTAE 202300
TAFABY
TAF
KABY 202336Z 2100/2124 00000KT P6SM SCT250
     FM211600 34005KT P6SM SCT250=



Latest METAR

044
SAUS70 KWBC 211700 RRB
MTRABY
METAR KABY 211653Z 31006KT 10SM CLR 24/12 A3002 RMK AO2 SLP166 T02440117
$


USA.gov is the U.S. government's official web portal to all federal, state and local government web resources and services.